ENT4SW EPWA-LGKO
Flight info
| Callsign | ENT4SW |
|---|---|
| Flight time | 2h 24m |
| Altitude | 37000 |
| Route | EVINA DCT KOTEK DCT ORTEB DCT KOJOT DCT KSC DCT KEKED DCT NARKA/N0444F390 DCT LOMOS DCT NIKTI DCT MES UN139 OKORO N139 LURUS L995 KOPAR |
| Aircraft | B738/M-SDGHIJ1RWXY/EB1 |
Departure
| Time | 2026-05-04 13:48 |
|---|---|
| Airport | Warsaw Chopin Airport (EPWA) |
Arrival
| Time | 2026-05-04 16:12 |
|---|---|
| Airport | Kos International Airport "Ippokratis" (LGKO) |
| Time | Latitude | Longitude | Altitude | Speed | Heading |
|---|---|---|---|---|---|
| 2026-05-04 13:35 | 52.15891 | 20.98111 | 336 ft | 0 kts | 114° |
| 2026-05-04 13:46 | 52.15889 | 20.98115 | 338 ft | 2 kts | 114° |
| 2026-05-04 13:46 | 52.15878 | 20.98195 | 338 ft | 13 kts | 71° |
| 2026-05-04 13:46 | 52.15956 | 20.98265 | 337 ft | 13 kts | 24° |
| 2026-05-04 13:46 | 52.16059 | 20.98342 | 334 ft | 18 kts | 25° |
| 2026-05-04 13:47 | 52.16144 | 20.98246 | 332 ft | 17 kts | 294° |
| 2026-05-04 13:47 | 52.16237 | 20.97915 | 335 ft | 68 kts | 294° |
| 2026-05-04 13:47 | 52.16548 | 20.96793 | 334 ft | 146 kts | 294° |
| 2026-05-04 13:47 | 52.17067 | 20.95034 | 651 ft | 187 kts | 291° |
| 2026-05-04 13:48 | 52.17644 | 20.93070 | 1586 ft | 197 kts | 292° |
| 2026-05-04 13:48 | 52.18221 | 20.91012 | 2532 ft | 193 kts | 292° |
| 2026-05-04 13:48 | 52.18792 | 20.89127 | 3696 ft | 176 kts | 293° |
| 2026-05-04 13:48 | 52.19331 | 20.87407 | 4728 ft | 169 kts | 285° |
| 2026-05-04 13:49 | 52.19286 | 20.85502 | 5172 ft | 186 kts | 239° |
| 2026-05-04 13:49 | 52.18294 | 20.83957 | 5417 ft | 214 kts | 212° |
| 2026-05-04 13:49 | 52.16817 | 20.82976 | 5628 ft | 246 kts | 203° |
| 2026-05-04 13:49 | 52.15167 | 20.81879 | 6100 ft | 262 kts | 204° |
| 2026-05-04 13:50 | 52.13443 | 20.80806 | 6900 ft | 265 kts | 202° |
| 2026-05-04 13:50 | 52.11714 | 20.79783 | 7828 ft | 266 kts | 202° |
| 2026-05-04 13:50 | 52.09957 | 20.78738 | 8621 ft | 271 kts | 202° |
| 2026-05-04 13:50 | 52.08179 | 20.77681 | 9489 ft | 273 kts | 202° |
| 2026-05-04 13:51 | 52.06388 | 20.76611 | 10293 ft | 278 kts | 203° |
| 2026-05-04 13:51 | 52.04507 | 20.75466 | 10568 ft | 301 kts | 203° |
| 2026-05-04 13:51 | 52.02468 | 20.74231 | 10838 ft | 322 kts | 203° |
| 2026-05-04 13:51 | 52.00345 | 20.72949 | 11498 ft | 329 kts | 203° |
| 2026-05-04 13:52 | 51.96031 | 20.70338 | 13129 ft | 333 kts | 203° |
| 2026-05-04 13:52 | 51.93855 | 20.69018 | 13913 ft | 335 kts | 203° |
| 2026-05-04 13:52 | 51.91663 | 20.67691 | 14597 ft | 339 kts | 202° |
| 2026-05-04 13:53 | 51.89353 | 20.66737 | 15225 ft | 348 kts | 191° |
| 2026-05-04 13:53 | 51.86911 | 20.66511 | 15874 ft | 354 kts | 185° |
| 2026-05-04 13:53 | 51.84442 | 20.66397 | 16565 ft | 357 kts | 185° |
| 2026-05-04 13:54 | 51.79433 | 20.66172 | 17890 ft | 364 kts | 186° |
| 2026-05-04 13:54 | 51.76887 | 20.66048 | 18500 ft | 367 kts | 186° |
| 2026-05-04 13:54 | 51.71720 | 20.65777 | 19531 ft | 376 kts | 185° |
| 2026-05-04 13:55 | 51.69087 | 20.65632 | 20045 ft | 381 kts | 185° |
| 2026-05-04 13:55 | 51.63733 | 20.65335 | 21087 ft | 389 kts | 185° |
| 2026-05-04 13:55 | 51.61013 | 20.65183 | 21590 ft | 393 kts | 185° |
| 2026-05-04 13:56 | 51.58260 | 20.65029 | 22080 ft | 398 kts | 185° |
| 2026-05-04 13:56 | 51.55485 | 20.64874 | 22579 ft | 401 kts | 185° |
| 2026-05-04 13:56 | 51.49851 | 20.64560 | 23567 ft | 408 kts | 185° |
| 2026-05-04 13:57 | 51.47002 | 20.64401 | 23964 ft | 412 kts | 185° |
| 2026-05-04 13:57 | 51.44134 | 20.64242 | 24402 ft | 414 kts | 185° |
| 2026-05-04 13:58 | 51.35489 | 20.63764 | 25805 ft | 416 kts | 185° |
| 2026-05-04 13:58 | 51.29646 | 20.63439 | 26488 ft | 423 kts | 185° |
| 2026-05-04 13:58 | 51.26696 | 20.63276 | 26873 ft | 425 kts | 184° |
| 2026-05-04 13:59 | 51.23733 | 20.63113 | 27250 ft | 428 kts | 184° |
| 2026-05-04 13:59 | 51.20748 | 20.62948 | 27611 ft | 430 kts | 184° |
| 2026-05-04 13:59 | 51.14732 | 20.62617 | 28307 ft | 435 kts | 184° |
| 2026-05-04 14:00 | 51.11698 | 20.62451 | 28645 ft | 438 kts | 184° |
| 2026-05-04 14:00 | 51.05567 | 20.62115 | 29297 ft | 443 kts | 184° |
| 2026-05-04 14:00 | 51.02487 | 20.61946 | 29611 ft | 445 kts | 184° |
| 2026-05-04 14:01 | 50.99379 | 20.61776 | 29906 ft | 448 kts | 184° |
| 2026-05-04 14:01 | 50.96257 | 20.61606 | 30168 ft | 450 kts | 184° |
| 2026-05-04 14:01 | 50.89968 | 20.61264 | 30675 ft | 454 kts | 184° |
| 2026-05-04 14:02 | 50.86809 | 20.61092 | 30958 ft | 455 kts | 184° |
| 2026-05-04 14:02 | 50.83696 | 20.60924 | 31305 ft | 453 kts | 184° |
| 2026-05-04 14:02 | 50.80497 | 20.60751 | 31536 ft | 456 kts | 184° |
| 2026-05-04 14:02 | 50.77358 | 20.60581 | 31729 ft | 458 kts | 184° |
| 2026-05-04 14:03 | 50.74179 | 20.60409 | 32098 ft | 456 kts | 184° |
| 2026-05-04 14:03 | 50.71019 | 20.60240 | 32537 ft | 453 kts | 184° |
| 2026-05-04 14:03 | 50.67876 | 20.60071 | 32906 ft | 452 kts | 184° |
| 2026-05-04 14:03 | 50.64726 | 20.59901 | 33112 ft | 454 kts | 184° |
| 2026-05-04 14:04 | 50.58403 | 20.59561 | 33676 ft | 454 kts | 184° |
| 2026-05-04 14:04 | 50.55254 | 20.59392 | 34051 ft | 452 kts | 184° |
| 2026-05-04 14:04 | 50.52118 | 20.59224 | 34327 ft | 451 kts | 184° |
| 2026-05-04 14:05 | 50.45855 | 20.58890 | 34806 ft | 450 kts | 184° |
| 2026-05-04 14:05 | 50.42724 | 20.58723 | 35066 ft | 450 kts | 184° |
| 2026-05-04 14:05 | 50.39596 | 20.58556 | 35270 ft | 450 kts | 184° |
| 2026-05-04 14:06 | 50.36460 | 20.58389 | 35497 ft | 450 kts | 184° |
| 2026-05-04 14:06 | 50.33338 | 20.58223 | 35768 ft | 449 kts | 184° |
| 2026-05-04 14:06 | 50.30224 | 20.58058 | 36037 ft | 447 kts | 184° |
| 2026-05-04 14:06 | 50.27114 | 20.57893 | 36264 ft | 447 kts | 184° |
| 2026-05-04 14:07 | 50.24007 | 20.57729 | 36470 ft | 447 kts | 184° |
| 2026-05-04 14:07 | 50.20903 | 20.57565 | 36706 ft | 446 kts | 184° |
| 2026-05-04 14:07 | 50.17803 | 20.57401 | 36937 ft | 445 kts | 184° |
| 2026-05-04 14:08 | 50.11570 | 20.57197 | 36986 ft | 451 kts | 177° |
| 2026-05-04 14:08 | 50.05429 | 20.59256 | 37004 ft | 453 kts | 162° |
| 2026-05-04 14:09 | 49.96490 | 20.64047 | 36996 ft | 453 kts | 162° |
| 2026-05-04 14:10 | 49.87543 | 20.68743 | 36994 ft | 452 kts | 162° |
| 2026-05-04 14:10 | 49.81582 | 20.71816 | 36994 ft | 452 kts | 162° |
| 2026-05-04 14:11 | 49.75608 | 20.74882 | 36999 ft | 452 kts | 162° |
| 2026-05-04 14:11 | 49.66689 | 20.79448 | 36994 ft | 452 kts | 162° |
| 2026-05-04 14:12 | 49.60710 | 20.82500 | 37011 ft | 453 kts | 162° |
| 2026-05-04 14:13 | 49.51711 | 20.87079 | 37015 ft | 455 kts | 162° |
| 2026-05-04 14:13 | 49.45701 | 20.90128 | 37012 ft | 456 kts | 162° |
| 2026-05-04 14:14 | 49.39674 | 20.93178 | 37013 ft | 456 kts | 162° |
| 2026-05-04 14:14 | 49.30608 | 20.97749 | 37020 ft | 458 kts | 162° |
| 2026-05-04 14:15 | 49.18436 | 21.03863 | 37026 ft | 462 kts | 162° |
| 2026-05-04 14:16 | 49.09256 | 21.08448 | 37036 ft | 463 kts | 162° |
| 2026-05-04 14:17 | 49.00040 | 21.13038 | 37048 ft | 465 kts | 161° |
| 2026-05-04 14:18 | 48.90706 | 21.16924 | 37057 ft | 460 kts | 167° |
| 2026-05-04 14:19 | 48.78378 | 21.21181 | 37063 ft | 453 kts | 166° |
| 2026-05-04 14:19 | 48.72257 | 21.23382 | 37084 ft | 453 kts | 166° |
| 2026-05-04 14:20 | 48.66051 | 21.25505 | 37095 ft | 461 kts | 169° |
| 2026-05-04 14:20 | 48.59711 | 21.27147 | 37080 ft | 463 kts | 171° |
| 2026-05-04 14:21 | 48.50187 | 21.29872 | 37053 ft | 465 kts | 164° |
| 2026-05-04 14:21 | 48.44006 | 21.32690 | 37050 ft | 464 kts | 162° |
| 2026-05-04 14:22 | 48.37864 | 21.35619 | 37055 ft | 462 kts | 162° |
| 2026-05-04 14:22 | 48.31735 | 21.38469 | 37052 ft | 460 kts | 162° |
| 2026-05-04 14:23 | 48.22573 | 21.42631 | 37053 ft | 457 kts | 163° |
| 2026-05-04 14:24 | 48.16490 | 21.45376 | 37064 ft | 456 kts | 163° |
| 2026-05-04 14:24 | 48.10418 | 21.48110 | 37072 ft | 455 kts | 163° |
| 2026-05-04 14:25 | 48.04356 | 21.50835 | 37071 ft | 455 kts | 163° |
| 2026-05-04 14:25 | 47.95244 | 21.54920 | 37073 ft | 456 kts | 163° |
| 2026-05-04 14:26 | 47.90180 | 21.57183 | 37078 ft | 457 kts | 163° |
| 2026-05-04 14:26 | 47.83085 | 21.60347 | 37092 ft | 459 kts | 163° |
| 2026-05-04 14:27 | 47.77952 | 21.62629 | 37087 ft | 460 kts | 163° |
| 2026-05-04 14:27 | 47.71810 | 21.65355 | 37078 ft | 461 kts | 163° |
| 2026-05-04 14:28 | 47.65654 | 21.68080 | 37072 ft | 462 kts | 163° |
| 2026-05-04 14:28 | 47.59485 | 21.70804 | 37077 ft | 463 kts | 163° |
| 2026-05-04 14:29 | 47.47136 | 21.76237 | 37089 ft | 463 kts | 163° |
| 2026-05-04 14:30 | 47.40956 | 21.78947 | 37071 ft | 463 kts | 163° |
| 2026-05-04 14:31 | 47.31738 | 21.82976 | 37079 ft | 462 kts | 163° |
| 2026-05-04 14:32 | 47.19380 | 21.88349 | 37086 ft | 461 kts | 163° |
| 2026-05-04 14:32 | 47.13234 | 21.91003 | 37085 ft | 460 kts | 163° |
| 2026-05-04 14:33 | 47.07090 | 21.93652 | 37104 ft | 460 kts | 163° |
| 2026-05-04 14:33 | 47.00952 | 21.96293 | 37105 ft | 459 kts | 163° |
| 2026-05-04 14:34 | 46.94819 | 21.98926 | 37103 ft | 459 kts | 163° |
| 2026-05-04 14:34 | 46.88693 | 22.01550 | 37098 ft | 459 kts | 163° |
| 2026-05-04 14:35 | 46.82565 | 22.04169 | 37095 ft | 459 kts | 163° |
| 2026-05-04 14:35 | 46.76478 | 22.06764 | 37091 ft | 459 kts | 163° |
| 2026-05-04 14:36 | 46.70351 | 22.09369 | 37091 ft | 459 kts | 163° |
| 2026-05-04 14:36 | 46.64215 | 22.11972 | 37089 ft | 459 kts | 163° |
| 2026-05-04 14:37 | 46.58082 | 22.14568 | 37085 ft | 459 kts | 163° |
| 2026-05-04 14:37 | 46.51952 | 22.17157 | 37089 ft | 459 kts | 163° |
| 2026-05-04 14:38 | 46.45822 | 22.19739 | 37086 ft | 459 kts | 163° |
| 2026-05-04 14:38 | 46.39685 | 22.22318 | 37095 ft | 459 kts | 163° |
| 2026-05-04 14:39 | 46.33550 | 22.24891 | 37092 ft | 459 kts | 163° |
| 2026-05-04 14:39 | 46.27409 | 22.27460 | 37088 ft | 460 kts | 163° |
| 2026-05-04 14:40 | 46.18182 | 22.31308 | 37081 ft | 460 kts | 163° |
| 2026-05-04 14:40 | 46.12032 | 22.33866 | 37078 ft | 460 kts | 163° |
| 2026-05-04 14:41 | 46.05876 | 22.36420 | 37094 ft | 461 kts | 163° |
| 2026-05-04 14:42 | 45.93554 | 22.41515 | 37077 ft | 461 kts | 163° |
| 2026-05-04 14:42 | 45.87390 | 22.44055 | 37082 ft | 460 kts | 163° |
| 2026-05-04 14:43 | 45.81234 | 22.46586 | 37074 ft | 460 kts | 163° |
| 2026-05-04 14:43 | 45.75072 | 22.49113 | 37075 ft | 460 kts | 163° |
| 2026-05-04 14:44 | 45.68919 | 22.51631 | 37092 ft | 460 kts | 163° |
| 2026-05-04 14:44 | 45.62764 | 22.54144 | 37077 ft | 460 kts | 163° |
| 2026-05-04 14:45 | 45.56613 | 22.56649 | 37087 ft | 459 kts | 163° |
| 2026-05-04 14:45 | 45.50467 | 22.59147 | 37071 ft | 459 kts | 163° |
| 2026-05-04 14:46 | 45.44325 | 22.61638 | 37086 ft | 459 kts | 163° |
| 2026-05-04 14:46 | 45.38221 | 22.64107 | 37078 ft | 459 kts | 163° |
| 2026-05-04 14:47 | 45.32087 | 22.66583 | 37078 ft | 458 kts | 163° |
| 2026-05-04 14:47 | 45.25941 | 22.69059 | 37078 ft | 459 kts | 163° |
| 2026-05-04 14:48 | 45.19798 | 22.71527 | 37064 ft | 459 kts | 163° |
| 2026-05-04 14:48 | 45.13655 | 22.73991 | 37054 ft | 459 kts | 163° |
| 2026-05-04 14:49 | 45.07505 | 22.76451 | 37051 ft | 459 kts | 163° |
| 2026-05-04 14:49 | 45.01364 | 22.78902 | 37055 ft | 459 kts | 163° |
| 2026-05-04 14:50 | 44.95208 | 22.81354 | 37039 ft | 460 kts | 163° |
| 2026-05-04 14:50 | 44.89044 | 22.83804 | 37036 ft | 460 kts | 163° |
| 2026-05-04 14:51 | 44.82876 | 22.86250 | 37027 ft | 461 kts | 163° |
| 2026-05-04 14:51 | 44.76699 | 22.88693 | 37035 ft | 461 kts | 163° |
| 2026-05-04 14:52 | 44.70521 | 22.91132 | 37027 ft | 462 kts | 163° |
| 2026-05-04 14:52 | 44.64330 | 22.93570 | 37029 ft | 462 kts | 163° |
| 2026-05-04 14:53 | 44.58140 | 22.96003 | 37024 ft | 462 kts | 163° |
| 2026-05-04 14:53 | 44.51944 | 22.98433 | 37032 ft | 462 kts | 163° |
| 2026-05-04 14:54 | 44.45750 | 23.00856 | 37029 ft | 462 kts | 163° |
| 2026-05-04 14:54 | 44.39556 | 23.03274 | 37035 ft | 462 kts | 163° |
| 2026-05-04 14:55 | 44.33363 | 23.05686 | 37027 ft | 462 kts | 163° |
| 2026-05-04 14:55 | 44.27187 | 23.08087 | 37025 ft | 460 kts | 163° |
| 2026-05-04 14:56 | 44.21032 | 23.10474 | 37036 ft | 458 kts | 163° |
| 2026-05-04 14:56 | 44.14912 | 23.12843 | 37017 ft | 456 kts | 163° |
| 2026-05-04 14:57 | 44.08798 | 23.15204 | 37043 ft | 455 kts | 163° |
| 2026-05-04 14:57 | 44.02697 | 23.17555 | 37065 ft | 454 kts | 163° |
| 2026-05-04 14:58 | 43.96605 | 23.19899 | 37049 ft | 454 kts | 163° |
| 2026-05-04 14:58 | 43.90527 | 23.22232 | 37041 ft | 453 kts | 163° |
| 2026-05-04 14:59 | 43.84459 | 23.24556 | 37045 ft | 452 kts | 163° |
| 2026-05-04 15:00 | 43.75391 | 23.28103 | 37057 ft | 451 kts | 163° |
| 2026-05-04 15:00 | 43.69359 | 23.30498 | 37065 ft | 451 kts | 163° |
| 2026-05-04 15:01 | 43.60334 | 23.34060 | 37062 ft | 452 kts | 163° |
| 2026-05-04 15:01 | 43.54290 | 23.36434 | 37070 ft | 452 kts | 163° |
| 2026-05-04 15:02 | 43.48242 | 23.38804 | 37060 ft | 452 kts | 163° |
| 2026-05-04 15:02 | 43.42182 | 23.41174 | 37079 ft | 453 kts | 163° |
| 2026-05-04 15:03 | 43.36109 | 23.43544 | 37084 ft | 454 kts | 163° |
| 2026-05-04 15:03 | 43.30028 | 23.45912 | 37082 ft | 455 kts | 163° |
| 2026-05-04 15:04 | 43.23937 | 23.48280 | 37089 ft | 455 kts | 163° |
| 2026-05-04 15:04 | 43.17830 | 23.50648 | 37081 ft | 456 kts | 163° |
| 2026-05-04 15:05 | 43.11714 | 23.53015 | 37087 ft | 457 kts | 163° |
| 2026-05-04 15:05 | 43.05596 | 23.55377 | 37090 ft | 458 kts | 163° |
| 2026-05-04 15:06 | 42.99465 | 23.57741 | 37097 ft | 458 kts | 163° |
| 2026-05-04 15:07 | 42.90262 | 23.61279 | 37101 ft | 458 kts | 163° |
| 2026-05-04 15:07 | 42.84125 | 23.63632 | 37095 ft | 458 kts | 163° |
| 2026-05-04 15:08 | 42.77988 | 23.65980 | 37103 ft | 458 kts | 163° |
| 2026-05-04 15:08 | 42.71858 | 23.68320 | 37094 ft | 458 kts | 163° |
| 2026-05-04 15:09 | 42.65731 | 23.70655 | 37098 ft | 457 kts | 163° |
| 2026-05-04 15:09 | 42.59602 | 23.72986 | 37086 ft | 458 kts | 163° |
| 2026-05-04 15:10 | 42.50406 | 23.76475 | 37099 ft | 458 kts | 163° |
| 2026-05-04 15:11 | 42.42225 | 23.79568 | 37092 ft | 458 kts | 163° |
| 2026-05-04 15:11 | 42.35028 | 23.82279 | 37097 ft | 460 kts | 163° |
| 2026-05-04 15:12 | 42.29904 | 23.84213 | 37095 ft | 460 kts | 163° |
| 2026-05-04 15:12 | 42.23746 | 23.86529 | 37093 ft | 459 kts | 163° |
| 2026-05-04 15:13 | 42.17592 | 23.88833 | 37070 ft | 459 kts | 163° |
| 2026-05-04 15:13 | 42.11450 | 23.91135 | 37091 ft | 458 kts | 163° |
| 2026-05-04 15:14 | 42.05302 | 23.93433 | 37079 ft | 458 kts | 163° |
| 2026-05-04 15:14 | 41.99136 | 23.95730 | 37085 ft | 463 kts | 163° |
| 2026-05-04 15:15 | 41.92875 | 23.98061 | 37088 ft | 469 kts | 163° |
| 2026-05-04 15:15 | 41.86631 | 24.00380 | 37084 ft | 460 kts | 163° |
| 2026-05-04 15:16 | 41.77405 | 24.03797 | 37081 ft | 461 kts | 163° |
| 2026-05-04 15:17 | 41.68132 | 24.07220 | 37072 ft | 460 kts | 163° |
| 2026-05-04 15:17 | 41.58870 | 24.10626 | 37064 ft | 462 kts | 163° |
| 2026-05-04 15:18 | 41.52700 | 24.13113 | 37056 ft | 463 kts | 157° |
| 2026-05-04 15:19 | 41.43833 | 24.18203 | 37040 ft | 462 kts | 155° |
| 2026-05-04 15:19 | 41.35018 | 24.23328 | 37040 ft | 460 kts | 156° |
| 2026-05-04 15:20 | 41.29142 | 24.26673 | 37038 ft | 458 kts | 156° |
| 2026-05-04 15:20 | 41.23288 | 24.29989 | 37041 ft | 457 kts | 155° |
| 2026-05-04 15:21 | 41.17461 | 24.33361 | 37036 ft | 456 kts | 155° |
| 2026-05-04 15:22 | 41.08753 | 24.38428 | 37050 ft | 455 kts | 155° |
| 2026-05-04 15:22 | 41.00033 | 24.43473 | 37047 ft | 457 kts | 155° |
| 2026-05-04 15:23 | 40.94198 | 24.46836 | 37057 ft | 458 kts | 155° |
| 2026-05-04 15:23 | 40.88346 | 24.50201 | 37052 ft | 459 kts | 155° |
| 2026-05-04 15:24 | 40.76583 | 24.56947 | 37052 ft | 463 kts | 155° |
| 2026-05-04 15:25 | 40.70622 | 24.60357 | 37062 ft | 471 kts | 155° |
| 2026-05-04 15:26 | 40.61545 | 24.65535 | 37059 ft | 480 kts | 155° |
| 2026-05-04 15:26 | 40.52326 | 24.70777 | 37053 ft | 482 kts | 155° |
| 2026-05-04 15:27 | 40.43092 | 24.76012 | 37051 ft | 482 kts | 156° |
| 2026-05-04 15:28 | 40.33868 | 24.81226 | 37056 ft | 480 kts | 156° |
| 2026-05-04 15:29 | 40.24681 | 24.86405 | 37058 ft | 479 kts | 156° |
| 2026-05-04 15:30 | 40.03287 | 24.98404 | 37071 ft | 477 kts | 156° |
| 2026-05-04 15:31 | 39.94128 | 25.03516 | 37081 ft | 478 kts | 156° |
| 2026-05-04 15:32 | 39.78851 | 25.12009 | 37073 ft | 477 kts | 156° |
| 2026-05-04 15:34 | 39.63576 | 25.20496 | 37071 ft | 478 kts | 154° |
| 2026-05-04 15:34 | 39.54682 | 25.26343 | 37072 ft | 478 kts | 152° |
| 2026-05-04 15:35 | 39.45830 | 25.32320 | 37076 ft | 479 kts | 152° |
| 2026-05-04 15:36 | 39.36922 | 25.38202 | 37079 ft | 480 kts | 153° |
| 2026-05-04 15:36 | 39.30965 | 25.42109 | 37075 ft | 481 kts | 153° |
| 2026-05-04 15:37 | 39.25000 | 25.46014 | 37075 ft | 481 kts | 153° |
| 2026-05-04 15:37 | 39.19023 | 25.49922 | 37077 ft | 482 kts | 153° |
| 2026-05-04 15:38 | 39.13038 | 25.53830 | 37075 ft | 482 kts | 153° |
| 2026-05-04 15:38 | 39.07049 | 25.57731 | 37076 ft | 482 kts | 153° |
| 2026-05-04 15:39 | 39.01056 | 25.61629 | 37074 ft | 483 kts | 153° |
| 2026-05-04 15:40 | 38.92046 | 25.67474 | 37082 ft | 484 kts | 153° |
| 2026-05-04 15:40 | 38.86027 | 25.71369 | 37077 ft | 485 kts | 153° |
| 2026-05-04 15:41 | 38.80003 | 25.75261 | 37069 ft | 485 kts | 153° |
| 2026-05-04 15:41 | 38.73969 | 25.79150 | 37076 ft | 486 kts | 153° |
| 2026-05-04 15:42 | 38.67925 | 25.83039 | 37073 ft | 486 kts | 153° |
| 2026-05-04 15:42 | 38.64892 | 25.84988 | 36641 ft | 491 kts | 153° |
| 2026-05-04 15:42 | 38.61846 | 25.86943 | 36139 ft | 487 kts | 153° |
| 2026-05-04 15:42 | 38.58835 | 25.88874 | 35677 ft | 480 kts | 152° |
| 2026-05-04 15:43 | 38.55868 | 25.90774 | 35258 ft | 475 kts | 152° |
| 2026-05-04 15:43 | 38.52916 | 25.92664 | 34836 ft | 474 kts | 152° |
| 2026-05-04 15:43 | 38.49972 | 25.94546 | 34408 ft | 473 kts | 152° |
| 2026-05-04 15:43 | 38.47033 | 25.96425 | 33965 ft | 472 kts | 151° |
| 2026-05-04 15:44 | 38.44097 | 25.98300 | 33453 ft | 471 kts | 151° |
| 2026-05-04 15:44 | 38.41173 | 26.00163 | 33012 ft | 469 kts | 151° |
| 2026-05-04 15:44 | 38.38260 | 26.02018 | 32572 ft | 465 kts | 151° |
| 2026-05-04 15:44 | 38.35372 | 26.03857 | 31863 ft | 465 kts | 150° |
| 2026-05-04 15:45 | 38.32496 | 26.05686 | 31440 ft | 458 kts | 150° |
| 2026-05-04 15:45 | 38.29661 | 26.07486 | 30997 ft | 453 kts | 150° |
| 2026-05-04 15:45 | 38.26853 | 26.09269 | 30586 ft | 448 kts | 150° |
| 2026-05-04 15:45 | 38.24078 | 26.11028 | 30175 ft | 443 kts | 150° |
| 2026-05-04 15:46 | 38.21340 | 26.12763 | 29701 ft | 437 kts | 150° |
| 2026-05-04 15:46 | 38.18636 | 26.14476 | 29295 ft | 431 kts | 150° |
| 2026-05-04 15:46 | 38.15968 | 26.16164 | 28887 ft | 425 kts | 150° |
| 2026-05-04 15:46 | 38.13345 | 26.17823 | 28472 ft | 419 kts | 150° |
| 2026-05-04 15:47 | 38.10750 | 26.19463 | 28076 ft | 414 kts | 150° |
| 2026-05-04 15:47 | 38.08183 | 26.21084 | 27668 ft | 410 kts | 150° |
| 2026-05-04 15:47 | 38.05644 | 26.22685 | 27267 ft | 406 kts | 150° |
| 2026-05-04 15:47 | 38.03130 | 26.24271 | 26880 ft | 402 kts | 150° |
| 2026-05-04 15:48 | 38.00632 | 26.25845 | 26496 ft | 399 kts | 151° |
| 2026-05-04 15:48 | 37.98157 | 26.27404 | 26129 ft | 396 kts | 152° |
| 2026-05-04 15:48 | 37.93261 | 26.30484 | 25356 ft | 391 kts | 152° |
| 2026-05-04 15:49 | 37.90830 | 26.32011 | 24993 ft | 388 kts | 152° |
| 2026-05-04 15:49 | 37.88416 | 26.33526 | 24615 ft | 386 kts | 153° |
| 2026-05-04 15:49 | 37.86015 | 26.35031 | 24246 ft | 384 kts | 153° |
| 2026-05-04 15:49 | 37.83620 | 26.36532 | 23842 ft | 384 kts | 153° |
| 2026-05-04 15:50 | 37.81230 | 26.38029 | 23457 ft | 382 kts | 153° |
| 2026-05-04 15:50 | 37.78851 | 26.39516 | 23036 ft | 380 kts | 153° |
| 2026-05-04 15:50 | 37.76487 | 26.40994 | 22639 ft | 378 kts | 153° |
| 2026-05-04 15:50 | 37.74142 | 26.42458 | 22265 ft | 375 kts | 153° |
| 2026-05-04 15:51 | 37.71814 | 26.43911 | 21912 ft | 372 kts | 153° |
| 2026-05-04 15:51 | 37.69500 | 26.45355 | 21530 ft | 370 kts | 153° |
| 2026-05-04 15:51 | 37.67200 | 26.46788 | 21168 ft | 367 kts | 152° |
| 2026-05-04 15:51 | 37.64921 | 26.48208 | 20815 ft | 365 kts | 152° |
| 2026-05-04 15:52 | 37.62646 | 26.49624 | 20460 ft | 363 kts | 152° |
| 2026-05-04 15:52 | 37.60386 | 26.51030 | 20101 ft | 361 kts | 152° |
| 2026-05-04 15:52 | 37.58165 | 26.52411 | 19753 ft | 360 kts | 152° |
| 2026-05-04 15:52 | 37.55921 | 26.53805 | 19397 ft | 359 kts | 152° |
| 2026-05-04 15:53 | 37.53684 | 26.55194 | 19029 ft | 358 kts | 151° |
| 2026-05-04 15:53 | 37.51447 | 26.56582 | 18688 ft | 358 kts | 151° |
| 2026-05-04 15:53 | 37.49206 | 26.57973 | 18291 ft | 359 kts | 151° |
| 2026-05-04 15:53 | 37.46966 | 26.59361 | 17880 ft | 359 kts | 151° |
| 2026-05-04 15:54 | 37.44732 | 26.60745 | 17501 ft | 357 kts | 151° |
| 2026-05-04 15:54 | 37.43227 | 26.61676 | 17267 ft | 356 kts | 151° |
| 2026-05-04 15:54 | 37.40293 | 26.63491 | 16799 ft | 354 kts | 152° |
| 2026-05-04 15:54 | 37.38088 | 26.64853 | 16450 ft | 352 kts | 152° |
| 2026-05-04 15:55 | 37.35895 | 26.66208 | 16105 ft | 351 kts | 152° |
| 2026-05-04 15:55 | 37.34411 | 26.67124 | 15871 ft | 349 kts | 152° |
| 2026-05-04 15:55 | 37.32236 | 26.68465 | 15532 ft | 348 kts | 152° |
| 2026-05-04 15:55 | 37.30069 | 26.69801 | 15189 ft | 346 kts | 152° |
| 2026-05-04 15:56 | 37.27911 | 26.71131 | 14846 ft | 345 kts | 152° |
| 2026-05-04 15:56 | 37.25760 | 26.72455 | 14508 ft | 343 kts | 152° |
| 2026-05-04 15:56 | 37.23621 | 26.73771 | 14158 ft | 342 kts | 152° |
| 2026-05-04 15:56 | 37.21485 | 26.75085 | 13804 ft | 341 kts | 152° |
| 2026-05-04 15:57 | 37.19355 | 26.76394 | 13418 ft | 340 kts | 153° |
| 2026-05-04 15:57 | 37.17236 | 26.77695 | 13073 ft | 338 kts | 153° |
| 2026-05-04 15:57 | 37.15134 | 26.78987 | 12719 ft | 335 kts | 153° |
| 2026-05-04 15:57 | 37.13047 | 26.80267 | 12390 ft | 333 kts | 153° |
| 2026-05-04 15:58 | 37.10974 | 26.81537 | 12051 ft | 331 kts | 153° |
| 2026-05-04 15:58 | 37.08913 | 26.82800 | 11715 ft | 329 kts | 154° |
| 2026-05-04 15:58 | 37.06867 | 26.84053 | 11382 ft | 327 kts | 154° |
| 2026-05-04 15:58 | 37.04833 | 26.85297 | 11061 ft | 324 kts | 154° |
| 2026-05-04 15:59 | 37.02810 | 26.86534 | 10740 ft | 322 kts | 154° |
| 2026-05-04 15:59 | 37.00803 | 26.87762 | 10429 ft | 320 kts | 154° |
| 2026-05-04 15:59 | 36.98814 | 26.88977 | 10209 ft | 315 kts | 155° |
| 2026-05-04 15:59 | 36.96896 | 26.90148 | 10041 ft | 308 kts | 155° |
| 2026-05-04 16:00 | 36.94976 | 26.91320 | 9732 ft | 307 kts | 155° |
| 2026-05-04 16:00 | 36.93055 | 26.92489 | 9405 ft | 306 kts | 155° |
| 2026-05-04 16:00 | 36.91153 | 26.93649 | 9112 ft | 304 kts | 155° |
| 2026-05-04 16:00 | 36.89256 | 26.94804 | 8815 ft | 302 kts | 154° |
| 2026-05-04 16:01 | 36.87375 | 26.95949 | 8517 ft | 300 kts | 154° |
| 2026-05-04 16:01 | 36.85506 | 26.97086 | 8230 ft | 298 kts | 154° |
| 2026-05-04 16:01 | 36.83642 | 26.98219 | 7917 ft | 298 kts | 154° |
| 2026-05-04 16:01 | 36.81781 | 26.99350 | 7619 ft | 297 kts | 154° |
| 2026-05-04 16:02 | 36.79930 | 27.00475 | 7323 ft | 296 kts | 154° |
| 2026-05-04 16:02 | 36.78081 | 27.01597 | 7034 ft | 295 kts | 153° |
| 2026-05-04 16:02 | 36.74418 | 27.03821 | 6359 ft | 285 kts | 153° |
| 2026-05-04 16:03 | 36.72657 | 27.04888 | 6062 ft | 277 kts | 153° |
| 2026-05-04 16:03 | 36.70952 | 27.05921 | 5833 ft | 268 kts | 153° |
| 2026-05-04 16:03 | 36.69297 | 27.06923 | 5668 ft | 260 kts | 153° |
| 2026-05-04 16:03 | 36.67675 | 27.07905 | 5512 ft | 259 kts | 153° |
| 2026-05-04 16:04 | 36.66050 | 27.08889 | 5418 ft | 260 kts | 153° |
| 2026-05-04 16:04 | 36.62915 | 27.10783 | 5179 ft | 237 kts | 153° |
| 2026-05-04 16:04 | 36.61475 | 27.11653 | 5087 ft | 223 kts | 151° |
| 2026-05-04 16:05 | 36.60343 | 27.12861 | 4903 ft | 209 kts | 111° |
| 2026-05-04 16:05 | 36.59993 | 27.14546 | 4776 ft | 200 kts | 82° |
| 2026-05-04 16:05 | 36.60716 | 27.17749 | 4409 ft | 192 kts | 60° |
| 2026-05-04 16:06 | 36.61208 | 27.19357 | 4186 ft | 208 kts | 59° |
| 2026-05-04 16:06 | 36.64029 | 27.20617 | 3631 ft | 172 kts | 338° |
| 2026-05-04 16:07 | 36.65471 | 27.19810 | 3336 ft | 168 kts | 334° |
| 2026-05-04 16:07 | 36.68451 | 27.17672 | 2707 ft | 158 kts | 328° |
| 2026-05-04 16:08 | 36.69366 | 27.16965 | 2465 ft | 150 kts | 328° |
| 2026-05-04 16:08 | 36.71750 | 27.15111 | 1949 ft | 126 kts | 330° |
| 2026-05-04 16:09 | 36.73230 | 27.13960 | 1625 ft | 126 kts | 329° |
| 2026-05-04 16:09 | 36.74719 | 27.12801 | 1292 ft | 126 kts | 329° |
| 2026-05-04 16:10 | 36.76186 | 27.11660 | 952 ft | 127 kts | 329° |
| 2026-05-04 16:11 | 36.78482 | 27.09870 | 426 ft | 129 kts | 330° |
| 2026-05-04 16:11 | 36.79197 | 27.09316 | 404 ft | 110 kts | 328° |
| 2026-05-04 16:12 | 36.80186 | 27.08551 | 412 ft | 30 kts | 329° |
| 2026-05-04 16:12 | 36.80336 | 27.08602 | 415 ft | 11 kts | 104° |
| 2026-05-04 16:13 | 36.80208 | 27.08770 | 417 ft | 14 kts | 148° |
| 2026-05-04 16:13 | 36.80123 | 27.08881 | 416 ft | 6 kts | 59° |
| 2026-05-04 16:14 | 36.80143 | 27.08921 | 415 ft | 0 kts | 58° |